sensor_id;sensor_type;location;lat;lon;timestamp;P1;durP1;ratioP1;P2;durP2;ratioP2
8952;SDS011;4511;50.890;8.054;2023-04-01T00:01:28;5.37;;;2.33;;
8952;SDS011;4511;50.890;8.054;2023-04-01T00:03:55;5.03;;;2.53;;
8952;SDS011;4511;50.890;8.054;2023-04-01T00:06:22;6.70;;;2.50;;
8952;SDS011;4511;50.890;8.054;2023-04-01T00:08:49;3.17;;;2.30;;
8952;SDS011;4511;50.890;8.054;2023-04-01T00:11:17;4.77;;;2.37;;
8952;SDS011;4511;50.890;8.054;2023-04-01T00:13:45;6.63;;;2.70;;
8952;SDS011;4511;50.890;8.054;2023-04-01T00:16:13;7.83;;;2.40;;
8952;SDS011;4511;50.890;8.054;2023-04-01T00:18:40;8.13;;;2.53;;
8952;SDS011;4511;50.890;8.054;2023-04-01T00:21:07;5.17;;;2.70;;
8952;SDS011;4511;50.890;8.054;2023-04-01T00:23:34;4.27;;;2.50;;
8952;SDS011;4511;50.890;8.054;2023-04-01T00:26:01;3.33;;;2.07;;
8952;SDS011;4511;50.890;8.054;2023-04-01T00:28:28;3.33;;;2.10;;
8952;SDS011;4511;50.890;8.054;2023-04-01T00:30:57;5.30;;;2.30;;
8952;SDS011;4511;50.890;8.054;2023-04-01T00:33:24;5.10;;;2.40;;
8952;SDS011;4511;50.890;8.054;2023-04-01T00:35:52;2.30;;;2.10;;
8952;SDS011;4511;50.890;8.054;2023-04-01T00:38:19;3.50;;;2.37;;
8952;SDS011;4511;50.890;8.054;2023-04-01T00:40:46;3.80;;;2.30;;
8952;SDS011;4511;50.890;8.054;2023-04-01T00:43:14;3.50;;;2.10;;
8952;SDS011;4511;50.890;8.054;2023-04-01T00:45:43;3.07;;;2.20;;
8952;SDS011;4511;50.890;8.054;2023-04-01T00:48:14;4.70;;;2.33;;
8952;SDS011;4511;50.890;8.054;2023-04-01T00:50:44;4.57;;;2.70;;
8952;SDS011;4511;50.890;8.054;2023-04-01T00:53:13;5.13;;;2.47;;
8952;SDS011;4511;50.890;8.054;2023-04-01T00:55:42;3.67;;;2.23;;
8952;SDS011;4511;50.890;8.054;2023-04-01T00:58:14;2.80;;;2.20;;
8952;SDS011;4511;50.890;8.054;2023-04-01T01:00:44;2.60;;;2.00;;
8952;SDS011;4511;50.890;8.054;2023-04-01T01:03:14;2.30;;;2.10;;
8952;SDS011;4511;50.890;8.054;2023-04-01T01:05:52;2.60;;;2.10;;
8952;SDS011;4511;50.890;8.054;2023-04-01T01:08:33;9.80;;;2.30;;
8952;SDS011;4511;50.890;8.054;2023-04-01T01:11:10;2.80;;;2.23;;
8952;SDS011;4511;50.890;8.054;2023-04-01T01:13:40;3.33;;;2.30;;
8952;SDS011;4511;50.890;8.054;2023-04-01T01:16:15;5.03;;;2.40;;
8952;SDS011;4511;50.890;8.054;2023-04-01T01:18:50;2.97;;;2.10;;
8952;SDS011;4511;50.890;8.054;2023-04-01T01:21:30;3.03;;;2.10;;
8952;SDS011;4511;50.890;8.054;2023-04-01T01:24:27;2.73;;;2.27;;
8952;SDS011;4511;50.890;8.054;2023-04-01T01:27:16;3.13;;;2.27;;
8952;SDS011;4511;50.890;8.054;2023-04-01T01:30:02;2.23;;;2.03;;
8952;SDS011;4511;50.890;8.054;2023-04-01T01:32:56;4.40;;;2.20;;
8952;SDS011;4511;50.890;8.054;2023-04-01T01:35:34;3.33;;;2.00;;
8952;SDS011;4511;50.890;8.054;2023-04-01T01:38:05;2.90;;;2.20;;
8952;SDS011;4511;50.890;8.054;2023-04-01T01:40:35;3.00;;;1.90;;
8952;SDS011;4511;50.890;8.054;2023-04-01T01:43:05;3.67;;;2.03;;
8952;SDS011;4511;50.890;8.054;2023-04-01T01:45:36;2.63;;;2.20;;
8952;SDS011;4511;50.890;8.054;2023-04-01T01:48:09;4.10;;;2.10;;
8952;SDS011;4511;50.890;8.054;2023-04-01T01:50:38;2.17;;;1.97;;
8952;SDS011;4511;50.890;8.054;2023-04-01T01:53:08;2.43;;;1.97;;
8952;SDS011;4511;50.890;8.054;2023-04-01T01:55:36;3.60;;;2.20;;
8952;SDS011;4511;50.890;8.054;2023-04-01T01:58:06;4.53;;;2.10;;
8952;SDS011;4511;50.890;8.054;2023-04-01T02:00:37;2.33;;;2.10;;
8952;SDS011;4511;50.890;8.054;2023-04-01T02:03:06;4.90;;;2.27;;
8952;SDS011;4511;50.890;8.054;2023-04-01T02:05:33;3.57;;;2.20;;
8952;SDS011;4511;50.890;8.054;2023-04-01T02:08:04;2.70;;;2.20;;
8952;SDS011;4511;50.890;8.054;2023-04-01T02:10:35;2.97;;;2.37;;
8952;SDS011;4511;50.890;8.054;2023-04-01T02:13:07;2.10;;;1.97;;
8952;SDS011;4511;50.890;8.054;2023-04-01T02:15:41;1.90;;;1.80;;
8952;SDS011;4511;50.890;8.054;2023-04-01T02:18:12;3.53;;;2.13;;
8952;SDS011;4511;50.890;8.054;2023-04-01T02:20:40;3.17;;;2.10;;
8952;SDS011;4511;50.890;8.054;2023-04-01T02:23:10;2.50;;;1.90;;
8952;SDS011;4511;50.890;8.054;2023-04-01T02:25:38;2.33;;;2.07;;
8952;SDS011;4511;50.890;8.054;2023-04-01T02:28:07;2.40;;;2.00;;
8952;SDS011;4511;50.890;8.054;2023-04-01T02:30:36;4.70;;;2.20;;
8952;SDS011;4511;50.890;8.054;2023-04-01T02:33:05;3.00;;;2.00;;
8952;SDS011;4511;50.890;8.054;2023-04-01T02:35:33;3.07;;;2.10;;
8952;SDS011;4511;50.890;8.054;2023-04-01T02:38:01;4.00;;;2.10;;
8952;SDS011;4511;50.890;8.054;2023-04-01T02:40:39;2.80;;;2.13;;
8952;SDS011;4511;50.890;8.054;2023-04-01T02:43:08;3.90;;;2.40;;
8952;SDS011;4511;50.890;8.054;2023-04-01T02:45:35;4.20;;;2.30;;
8952;SDS011;4511;50.890;8.054;2023-04-01T02:48:02;3.80;;;2.30;;
8952;SDS011;4511;50.890;8.054;2023-04-01T02:50:29;3.10;;;2.10;;
8952;SDS011;4511;50.890;8.054;2023-04-01T02:52:56;2.20;;;2.00;;
8952;SDS011;4511;50.890;8.054;2023-04-01T02:55:23;1.90;;;1.80;;
8952;SDS011;4511;50.890;8.054;2023-04-01T02:57:51;4.07;;;2.30;;
8952;SDS011;4511;50.890;8.054;2023-04-01T03:00:18;2.70;;;1.97;;
8952;SDS011;4511;50.890;8.054;2023-04-01T03:02:45;3.33;;;2.33;;
8952;SDS011;4511;50.890;8.054;2023-04-01T03:05:12;3.60;;;1.90;;
8952;SDS011;4511;50.890;8.054;2023-04-01T03:07:39;3.47;;;2.20;;
8952;SDS011;4511;50.890;8.054;2023-04-01T03:10:06;3.03;;;2.20;;
8952;SDS011;4511;50.890;8.054;2023-04-01T03:12:33;3.60;;;2.10;;
8952;SDS011;4511;50.890;8.054;2023-04-01T03:15:02;7.07;;;2.20;;
8952;SDS011;4511;50.890;8.054;2023-04-01T03:17:29;3.87;;;1.97;;
8952;SDS011;4511;50.890;8.054;2023-04-01T03:19:56;2.20;;;2.00;;
8952;SDS011;4511;50.890;8.054;2023-04-01T03:22:23;2.60;;;1.90;;
8952;SDS011;4511;50.890;8.054;2023-04-01T03:24:50;3.70;;;2.30;;
8952;SDS011;4511;50.890;8.054;2023-04-01T03:27:17;3.17;;;2.20;;
8952;SDS011;4511;50.890;8.054;2023-04-01T03:29:44;3.23;;;2.20;;
8952;SDS011;4511;50.890;8.054;2023-04-01T03:32:12;3.70;;;2.20;;
8952;SDS011;4511;50.890;8.054;2023-04-01T03:34:39;2.00;;;1.80;;
8952;SDS011;4511;50.890;8.054;2023-04-01T03:37:05;5.10;;;2.30;;
8952;SDS011;4511;50.890;8.054;2023-04-01T03:39:32;2.70;;;2.00;;
8952;SDS011;4511;50.890;8.054;2023-04-01T03:41:59;2.30;;;2.00;;
8952;SDS011;4511;50.890;8.054;2023-04-01T03:44:29;2.50;;;1.90;;
8952;SDS011;4511;50.890;8.054;2023-04-01T03:46:57;2.70;;;2.23;;
8952;SDS011;4511;50.890;8.054;2023-04-01T03:49:25;2.10;;;1.90;;
8952;SDS011;4511;50.890;8.054;2023-04-01T03:51:52;2.03;;;1.80;;
8952;SDS011;4511;50.890;8.054;2023-04-01T03:54:18;2.20;;;2.00;;
8952;SDS011;4511;50.890;8.054;2023-04-01T03:56:46;4.50;;;2.00;;
8952;SDS011;4511;50.890;8.054;2023-04-01T03:59:12;3.87;;;2.00;;
8952;SDS011;4511;50.890;8.054;2023-04-01T04:01:40;3.63;;;2.27;;
8952;SDS011;4511;50.890;8.054;2023-04-01T04:04:07;2.00;;;1.80;;
8952;SDS011;4511;50.890;8.054;2023-04-01T04:06:38;2.17;;;1.90;;
8952;SDS011;4511;50.890;8.054;2023-04-01T04:09:04;2.40;;;1.93;;
8952;SDS011;4511;50.890;8.054;2023-04-01T04:11:31;3.13;;;2.00;;
8952;SDS011;4511;50.890;8.054;2023-04-01T04:13:58;2.50;;;2.30;;
8952;SDS011;4511;50.890;8.054;2023-04-01T04:16:25;3.67;;;2.57;;
8952;SDS011;4511;50.890;8.054;2023-04-01T04:18:52;4.67;;;2.80;;
8952;SDS011;4511;50.890;8.054;2023-04-01T04:21:18;3.20;;;2.60;;
8952;SDS011;4511;50.890;8.054;2023-04-01T04:23:47;2.40;;;2.17;;
8952;SDS011;4511;50.890;8.054;2023-04-01T04:26:14;2.53;;;2.20;;
8952;SDS011;4511;50.890;8.054;2023-04-01T04:28:41;2.97;;;2.20;;
8952;SDS011;4511;50.890;8.054;2023-04-01T04:31:08;1.97;;;1.87;;
8952;SDS011;4511;50.890;8.054;2023-04-01T04:33:35;2.10;;;1.90;;
8952;SDS011;4511;50.890;8.054;2023-04-01T04:36:03;3.57;;;2.13;;
8952;SDS011;4511;50.890;8.054;2023-04-01T04:38:30;2.10;;;1.90;;
8952;SDS011;4511;50.890;8.054;2023-04-01T04:40:58;1.93;;;1.83;;
8952;SDS011;4511;50.890;8.054;2023-04-01T04:43:25;2.67;;;2.10;;
8952;SDS011;4511;50.890;8.054;2023-04-01T04:45:52;2.83;;;1.80;;
8952;SDS011;4511;50.890;8.054;2023-04-01T04:48:19;2.23;;;2.10;;
8952;SDS011;4511;50.890;8.054;2023-04-01T04:50:46;2.87;;;2.07;;
8952;SDS011;4511;50.890;8.054;2023-04-01T04:53:14;2.10;;;1.90;;
8952;SDS011;4511;50.890;8.054;2023-04-01T04:55:44;2.63;;;2.00;;
8952;SDS011;4511;50.890;8.054;2023-04-01T04:58:12;2.20;;;2.00;;
8952;SDS011;4511;50.890;8.054;2023-04-01T05:00:40;3.67;;;1.80;;
8952;SDS011;4511;50.890;8.054;2023-04-01T05:03:06;2.20;;;2.00;;
8952;SDS011;4511;50.890;8.054;2023-04-01T05:05:33;2.77;;;2.10;;
8952;SDS011;4511;50.890;8.054;2023-04-01T05:08:00;1.90;;;1.80;;
8952;SDS011;4511;50.890;8.054;2023-04-01T05:10:27;2.10;;;2.00;;
8952;SDS011;4511;50.890;8.054;2023-04-01T05:12:55;2.27;;;1.90;;
8952;SDS011;4511;50.890;8.054;2023-04-01T05:15:24;3.67;;;2.07;;
8952;SDS011;4511;50.890;8.054;2023-04-01T05:17:51;2.30;;;2.10;;
8952;SDS011;4511;50.890;8.054;2023-04-01T05:20:18;2.57;;;2.20;;
8952;SDS011;4511;50.890;8.054;2023-04-01T05:22:45;3.00;;;2.10;;
8952;SDS011;4511;50.890;8.054;2023-04-01T05:25:11;3.23;;;2.10;;
8952;SDS011;4511;50.890;8.054;2023-04-01T05:27:38;2.40;;;2.20;;
8952;SDS011;4511;50.890;8.054;2023-04-01T05:30:05;2.50;;;2.20;;
8952;SDS011;4511;50.890;8.054;2023-04-01T05:32:34;3.27;;;2.10;;
8952;SDS011;4511;50.890;8.054;2023-04-01T05:35:01;2.07;;;1.97;;
8952;SDS011;4511;50.890;8.054;2023-04-01T05:37:28;4.13;;;2.00;;
8952;SDS011;4511;50.890;8.054;2023-04-01T05:39:54;2.00;;;1.90;;
8952;SDS011;4511;50.890;8.054;2023-04-01T05:42:23;3.17;;;2.00;;
8952;SDS011;4511;50.890;8.054;2023-04-01T05:44:50;2.87;;;2.40;;
8952;SDS011;4511;50.890;8.054;2023-04-01T05:47:17;3.70;;;2.60;;
8952;SDS011;4511;50.890;8.054;2023-04-01T05:49:45;7.30;;;3.83;;
8952;SDS011;4511;50.890;8.054;2023-04-01T05:52:12;5.47;;;2.97;;
8952;SDS011;4511;50.890;8.054;2023-04-01T05:54:38;3.30;;;2.30;;
8952;SDS011;4511;50.890;8.054;2023-04-01T05:57:05;2.30;;;2.10;;
8952;SDS011;4511;50.890;8.054;2023-04-01T05:59:32;4.43;;;2.27;;
8952;SDS011;4511;50.890;8.054;2023-04-01T06:02:00;4.00;;;2.10;;
8952;SDS011;4511;50.890;8.054;2023-04-01T06:04:28;1.93;;;1.80;;
8952;SDS011;4511;50.890;8.054;2023-04-01T06:07:08;2.23;;;2.03;;
8952;SDS011;4511;50.890;8.054;2023-04-01T06:09:37;2.20;;;2.00;;
8952;SDS011;4511;50.890;8.054;2023-04-01T06:12:09;1.90;;;1.80;;
8952;SDS011;4511;50.890;8.054;2023-04-01T06:14:57;1.93;;;1.77;;
8952;SDS011;4511;50.890;8.054;2023-04-01T06:17:30;2.17;;;1.90;;
8952;SDS011;4511;50.890;8.054;2023-04-01T06:20:07;2.40;;;1.70;;
8952;SDS011;4511;50.890;8.054;2023-04-01T06:22:46;1.80;;;1.70;;
8952;SDS011;4511;50.890;8.054;2023-04-01T06:25:38;2.00;;;1.80;;
8952;SDS011;4511;50.890;8.054;2023-04-01T06:28:23;7.23;;;1.80;;
8952;SDS011;4511;50.890;8.054;2023-04-01T06:31:18;2.77;;;1.93;;
8952;SDS011;4511;50.890;8.054;2023-04-01T06:34:04;1.90;;;1.80;;
8952;SDS011;4511;50.890;8.054;2023-04-01T06:36:50;2.00;;;1.80;;
8952;SDS011;4511;50.890;8.054;2023-04-01T06:39:38;1.80;;;1.70;;
8952;SDS011;4511;50.890;8.054;2023-04-01T06:42:36;1.90;;;1.80;;
8952;SDS011;4511;50.890;8.054;2023-04-01T06:45:24;2.10;;;1.90;;
8952;SDS011;4511;50.890;8.054;2023-04-01T06:48:02;1.90;;;1.80;;
8952;SDS011;4511;50.890;8.054;2023-04-01T06:50:43;2.47;;;2.00;;
8952;SDS011;4511;50.890;8.054;2023-04-01T06:53:17;2.93;;;2.20;;
8952;SDS011;4511;50.890;8.054;2023-04-01T06:55:49;1.80;;;1.70;;
8952;SDS011;4511;50.890;8.054;2023-04-01T06:58:22;1.90;;;1.80;;
8952;SDS011;4511;50.890;8.054;2023-04-01T07:00:51;1.90;;;1.80;;
8952;SDS011;4511;50.890;8.054;2023-04-01T07:03:23;2.00;;;1.80;;
8952;SDS011;4511;50.890;8.054;2023-04-01T07:05:58;1.90;;;1.80;;
8952;SDS011;4511;50.890;8.054;2023-04-01T07:08:29;1.93;;;1.83;;
8952;SDS011;4511;50.890;8.054;2023-04-01T07:11:00;1.90;;;1.80;;
8952;SDS011;4511;50.890;8.054;2023-04-01T07:13:30;2.43;;;1.90;;
8952;SDS011;4511;50.890;8.054;2023-04-01T07:16:06;2.00;;;1.90;;
8952;SDS011;4511;50.890;8.054;2023-04-01T07:18:40;1.90;;;1.80;;
8952;SDS011;4511;50.890;8.054;2023-04-01T07:21:12;2.00;;;1.90;;
8952;SDS011;4511;50.890;8.054;2023-04-01T07:23:48;2.13;;;2.03;;
8952;SDS011;4511;50.890;8.054;2023-04-01T07:26:19;2.00;;;1.90;;
8952;SDS011;4511;50.890;8.054;2023-04-01T07:28:47;1.80;;;1.70;;
8952;SDS011;4511;50.890;8.054;2023-04-01T07:31:17;1.90;;;1.80;;
8952;SDS011;4511;50.890;8.054;2023-04-01T07:33:52;2.00;;;1.90;;
8952;SDS011;4511;50.890;8.054;2023-04-01T07:36:28;1.93;;;1.83;;
8952;SDS011;4511;50.890;8.054;2023-04-01T07:39:01;2.00;;;1.90;;
8952;SDS011;4511;50.890;8.054;2023-04-01T07:41:40;2.10;;;2.00;;
8952;SDS011;4511;50.890;8.054;2023-04-01T07:44:16;1.77;;;1.77;;
8952;SDS011;4511;50.890;8.054;2023-04-01T07:46:57;2.20;;;2.10;;
8952;SDS011;4511;50.890;8.054;2023-04-01T07:49:33;3.47;;;2.20;;
8952;SDS011;4511;50.890;8.054;2023-04-01T07:52:07;1.80;;;1.70;;
8952;SDS011;4511;50.890;8.054;2023-04-01T07:54:42;2.03;;;1.90;;
8952;SDS011;4511;50.890;8.054;2023-04-01T07:57:17;1.90;;;1.80;;
8952;SDS011;4511;50.890;8.054;2023-04-01T07:59:49;2.00;;;1.90;;
8952;SDS011;4511;50.890;8.054;2023-04-01T08:02:34;2.53;;;2.00;;
8952;SDS011;4511;50.890;8.054;2023-04-01T08:05:14;2.20;;;2.00;;
8952;SDS011;4511;50.890;8.054;2023-04-01T08:07:49;2.00;;;1.90;;
8952;SDS011;4511;50.890;8.054;2023-04-01T08:10:25;1.70;;;1.70;;
8952;SDS011;4511;50.890;8.054;2023-04-01T08:13:01;1.70;;;1.70;;
8952;SDS011;4511;50.890;8.054;2023-04-01T08:15:36;1.97;;;1.87;;
8952;SDS011;4511;50.890;8.054;2023-04-01T08:18:15;2.10;;;2.00;;
8952;SDS011;4511;50.890;8.054;2023-04-01T08:20:52;2.00;;;1.90;;
8952;SDS011;4511;50.890;8.054;2023-04-01T08:23:24;2.00;;;1.90;;
8952;SDS011;4511;50.890;8.054;2023-04-01T08:25:56;1.90;;;1.80;;
8952;SDS011;4511;50.890;8.054;2023-04-01T08:28:29;1.90;;;1.80;;
8952;SDS011;4511;50.890;8.054;2023-04-01T08:31:03;2.17;;;2.07;;
8952;SDS011;4511;50.890;8.054;2023-04-01T08:33:31;2.20;;;2.10;;
8952;SDS011;4511;50.890;8.054;2023-04-01T08:36:01;2.00;;;1.90;;
8952;SDS011;4511;50.890;8.054;2023-04-01T08:38:32;1.77;;;1.70;;
8952;SDS011;4511;50.890;8.054;2023-04-01T08:41:08;2.00;;;1.83;;
8952;SDS011;4511;50.890;8.054;2023-04-01T08:50:12;1.97;;;1.87;;
8952;SDS011;4511;50.890;8.054;2023-04-01T08:52:53;2.27;;;2.07;;
8952;SDS011;4511;50.890;8.054;2023-04-01T09:01:15;2.77;;;2.00;;
8952;SDS011;4511;50.890;8.054;2023-04-01T09:03:58;1.70;;;1.70;;
8952;SDS011;4511;50.890;8.054;2023-04-01T09:06:41;2.57;;;1.80;;
8952;SDS011;4511;50.890;8.054;2023-04-01T09:09:21;2.17;;;2.07;;
8952;SDS011;4511;50.890;8.054;2023-04-01T09:12:18;2.10;;;2.00;;
8952;SDS011;4511;50.890;8.054;2023-04-01T09:21:09;2.60;;;1.80;;
8952;SDS011;4511;50.890;8.054;2023-04-01T09:23:54;2.10;;;2.00;;
8952;SDS011;4511;50.890;8.054;2023-04-01T09:26:49;1.90;;;1.80;;
8952;SDS011;4511;50.890;8.054;2023-04-01T09:29:33;1.90;;;1.80;;
8952;SDS011;4511;50.890;8.054;2023-04-01T09:32:25;1.80;;;1.70;;
8952;SDS011;4511;50.890;8.054;2023-04-01T09:35:14;2.27;;;1.80;;
8952;SDS011;4511;50.890;8.054;2023-04-01T09:37:53;1.80;;;1.70;;
8952;SDS011;4511;50.890;8.054;2023-04-01T09:40:25;2.10;;;1.90;;
8952;SDS011;4511;50.890;8.054;2023-04-01T09:43:12;1.80;;;1.70;;
8952;SDS011;4511;50.890;8.054;2023-04-01T09:46:11;1.80;;;1.70;;
8952;SDS011;4511;50.890;8.054;2023-04-01T09:51:46;1.90;;;1.70;;
8952;SDS011;4511;50.890;8.054;2023-04-01T09:54:26;2.40;;;1.70;;
8952;SDS011;4511;50.890;8.054;2023-04-01T10:00:19;1.90;;;1.80;;
8952;SDS011;4511;50.890;8.054;2023-04-01T10:09:30;2.00;;;1.90;;
8952;SDS011;4511;50.890;8.054;2023-04-01T10:12:28;1.70;;;1.60;;
8952;SDS011;4511;50.890;8.054;2023-04-01T10:15:29;2.43;;;1.97;;
8952;SDS011;4511;50.890;8.054;2023-04-01T10:18:28;1.80;;;1.70;;
8952;SDS011;4511;50.890;8.054;2023-04-01T10:24:24;4.33;;;2.00;;
8952;SDS011;4511;50.890;8.054;2023-04-01T10:27:20;1.90;;;1.80;;
8952;SDS011;4511;50.890;8.054;2023-04-01T10:33:18;2.00;;;1.90;;
8952;SDS011;4511;50.890;8.054;2023-04-01T10:39:20;1.83;;;1.77;;
8952;SDS011;4511;50.890;8.054;2023-04-01T10:42:10;1.90;;;1.80;;
8952;SDS011;4511;50.890;8.054;2023-04-01T10:48:09;1.90;;;1.80;;
8952;SDS011;4511;50.890;8.054;2023-04-01T10:51:01;1.97;;;1.87;;
8952;SDS011;4511;50.890;8.054;2023-04-01T10:53:38;1.93;;;1.80;;
8952;SDS011;4511;50.890;8.054;2023-04-01T10:56:19;2.00;;;1.90;;
8952;SDS011;4511;50.890;8.054;2023-04-01T11:05:44;1.77;;;1.77;;
8952;SDS011;4511;50.890;8.054;2023-04-01T11:11:47;1.90;;;1.80;;
8952;SDS011;4511;50.890;8.054;2023-04-01T11:15:01;2.10;;;2.00;;
8952;SDS011;4511;50.890;8.054;2023-04-01T11:21:06;2.00;;;1.90;;
8952;SDS011;4511;50.890;8.054;2023-04-01T11:26:58;2.10;;;2.00;;
8952;SDS011;4511;50.890;8.054;2023-04-01T11:29:54;2.30;;;2.20;;
8952;SDS011;4511;50.890;8.054;2023-04-01T11:32:39;2.80;;;2.60;;
8952;SDS011;4511;50.890;8.054;2023-04-01T11:38:40;2.00;;;1.90;;
8952;SDS011;4511;50.890;8.054;2023-04-01T11:41:24;2.20;;;2.10;;
8952;SDS011;4511;50.890;8.054;2023-04-01T11:44:03;2.10;;;2.00;;
8952;SDS011;4511;50.890;8.054;2023-04-01T11:46:50;2.30;;;2.10;;
8952;SDS011;4511;50.890;8.054;2023-04-01T11:49:43;2.20;;;2.00;;
8952;SDS011;4511;50.890;8.054;2023-04-01T11:52:24;2.57;;;2.37;;
8952;SDS011;4511;50.890;8.054;2023-04-01T11:55:10;2.50;;;2.40;;
8952;SDS011;4511;50.890;8.054;2023-04-01T11:58:08;2.67;;;2.50;;
8952;SDS011;4511;50.890;8.054;2023-04-01T12:03:54;2.63;;;2.43;;
8952;SDS011;4511;50.890;8.054;2023-04-01T12:06:40;2.80;;;2.60;;
8952;SDS011;4511;50.890;8.054;2023-04-01T12:09:16;2.60;;;2.47;;
8952;SDS011;4511;50.890;8.054;2023-04-01T12:11:52;4.43;;;2.80;;
8952;SDS011;4511;50.890;8.054;2023-04-01T12:14:34;2.60;;;2.50;;
8952;SDS011;4511;50.890;8.054;2023-04-01T12:17:09;2.70;;;2.60;;
8952;SDS011;4511;50.890;8.054;2023-04-01T12:19:48;2.90;;;2.80;;
8952;SDS011;4511;50.890;8.054;2023-04-01T12:22:24;3.00;;;2.80;;
8952;SDS011;4511;50.890;8.054;2023-04-01T12:25:03;2.80;;;2.60;;
8952;SDS011;4511;50.890;8.054;2023-04-01T12:27:46;3.30;;;3.10;;
8952;SDS011;4511;50.890;8.054;2023-04-01T12:30:30;3.00;;;2.80;;
8952;SDS011;4511;50.890;8.054;2023-04-01T12:33:15;3.03;;;2.87;;
8952;SDS011;4511;50.890;8.054;2023-04-01T12:36:00;3.00;;;2.80;;
8952;SDS011;4511;50.890;8.054;2023-04-01T12:38:36;3.10;;;2.90;;
8952;SDS011;4511;50.890;8.054;2023-04-01T12:41:14;3.50;;;3.30;;
8952;SDS011;4511;50.890;8.054;2023-04-01T12:44:02;3.57;;;3.37;;
8952;SDS011;4511;50.890;8.054;2023-04-01T12:46:39;3.63;;;3.43;;
8952;SDS011;4511;50.890;8.054;2023-04-01T12:49:20;3.17;;;2.97;;
8952;SDS011;4511;50.890;8.054;2023-04-01T12:52:00;3.50;;;3.30;;
8952;SDS011;4511;50.890;8.054;2023-04-01T13:01:03;3.40;;;3.20;;
8952;SDS011;4511;50.890;8.054;2023-04-01T13:03:53;3.50;;;3.30;;
8952;SDS011;4511;50.890;8.054;2023-04-01T13:06:49;3.30;;;3.10;;
8952;SDS011;4511;50.890;8.054;2023-04-01T13:09:28;3.57;;;3.37;;
8952;SDS011;4511;50.890;8.054;2023-04-01T13:12:14;3.20;;;3.00;;
8952;SDS011;4511;50.890;8.054;2023-04-01T13:15:06;3.77;;;3.40;;
8952;SDS011;4511;50.890;8.054;2023-04-01T13:17:47;3.20;;;3.00;;
8952;SDS011;4511;50.890;8.054;2023-04-01T13:20:22;3.90;;;3.60;;
8952;SDS011;4511;50.890;8.054;2023-04-01T13:23:01;3.80;;;3.50;;
8952;SDS011;4511;50.890;8.054;2023-04-01T13:25:36;4.00;;;3.70;;
8952;SDS011;4511;50.890;8.054;2023-04-01T13:28:12;4.30;;;4.00;;
8952;SDS011;4511;50.890;8.054;2023-04-01T13:30:47;4.40;;;4.10;;
8952;SDS011;4511;50.890;8.054;2023-04-01T13:33:24;4.90;;;3.77;;
8952;SDS011;4511;50.890;8.054;2023-04-01T13:35:59;4.17;;;3.80;;
8952;SDS011;4511;50.890;8.054;2023-04-01T13:41:47;3.80;;;3.50;;
8952;SDS011;4511;50.890;8.054;2023-04-01T13:44:22;3.83;;;3.53;;
8952;SDS011;4511;50.890;8.054;2023-04-01T13:47:03;3.50;;;3.30;;
8952;SDS011;4511;50.890;8.054;2023-04-01T13:49:58;3.83;;;3.53;;
8952;SDS011;4511;50.890;8.054;2023-04-01T13:55:35;3.30;;;3.10;;
8952;SDS011;4511;50.890;8.054;2023-04-01T13:58:31;3.30;;;3.10;;
8952;SDS011;4511;50.890;8.054;2023-04-01T14:01:08;3.50;;;3.30;;
8952;SDS011;4511;50.890;8.054;2023-04-01T14:03:42;3.27;;;3.07;;
8952;SDS011;4511;50.890;8.054;2023-04-01T14:06:33;2.60;;;2.50;;
8952;SDS011;4511;50.890;8.054;2023-04-01T14:09:10;2.70;;;2.50;;
8952;SDS011;4511;50.890;8.054;2023-04-01T14:11:51;3.03;;;2.77;;
8952;SDS011;4511;50.890;8.054;2023-04-01T14:14:26;2.80;;;2.70;;
8952;SDS011;4511;50.890;8.054;2023-04-01T14:17:02;2.80;;;2.60;;
8952;SDS011;4511;50.890;8.054;2023-04-01T14:19:44;2.90;;;2.80;;
8952;SDS011;4511;50.890;8.054;2023-04-01T14:22:28;3.07;;;2.87;;
8952;SDS011;4511;50.890;8.054;2023-04-01T14:28:08;3.00;;;2.80;;
8952;SDS011;4511;50.890;8.054;2023-04-01T14:30:51;3.03;;;2.83;;
8952;SDS011;4511;50.890;8.054;2023-04-01T14:33:37;2.90;;;2.73;;
8952;SDS011;4511;50.890;8.054;2023-04-01T14:39:23;3.03;;;2.77;;
8952;SDS011;4511;50.890;8.054;2023-04-01T14:42:10;3.47;;;3.17;;
8952;SDS011;4511;50.890;8.054;2023-04-01T14:44:57;3.10;;;2.90;;
8952;SDS011;4511;50.890;8.054;2023-04-01T14:47:39;3.23;;;3.03;;
8952;SDS011;4511;50.890;8.054;2023-04-01T14:50:12;3.50;;;3.30;;
8952;SDS011;4511;50.890;8.054;2023-04-01T14:52:44;3.27;;;3.07;;
8952;SDS011;4511;50.890;8.054;2023-04-01T14:55:21;3.40;;;3.20;;
8952;SDS011;4511;50.890;8.054;2023-04-01T14:58:04;3.43;;;3.23;;
8952;SDS011;4511;50.890;8.054;2023-04-01T15:00:47;3.30;;;3.10;;
8952;SDS011;4511;50.890;8.054;2023-04-01T15:03:19;3.20;;;3.00;;
8952;SDS011;4511;50.890;8.054;2023-04-01T15:05:51;3.40;;;3.10;;
8952;SDS011;4511;50.890;8.054;2023-04-01T15:08:22;3.20;;;3.00;;
8952;SDS011;4511;50.890;8.054;2023-04-01T15:11:04;3.20;;;3.00;;
8952;SDS011;4511;50.890;8.054;2023-04-01T15:13:50;3.67;;;3.37;;
8952;SDS011;4511;50.890;8.054;2023-04-01T15:16:41;3.60;;;3.40;;
8952;SDS011;4511;50.890;8.054;2023-04-01T15:19:18;3.17;;;2.97;;
8952;SDS011;4511;50.890;8.054;2023-04-01T15:22:05;3.13;;;2.93;;
8952;SDS011;4511;50.890;8.054;2023-04-01T15:24:56;3.10;;;2.90;;
8952;SDS011;4511;50.890;8.054;2023-04-01T15:27:39;2.80;;;2.70;;
8952;SDS011;4511;50.890;8.054;2023-04-01T15:33:11;3.63;;;3.33;;
8952;SDS011;4511;50.890;8.054;2023-04-01T15:35:58;2.77;;;2.67;;
8952;SDS011;4511;50.890;8.054;2023-04-01T15:38:35;3.20;;;3.00;;
8952;SDS011;4511;50.890;8.054;2023-04-01T15:41:10;3.10;;;2.87;;
8952;SDS011;4511;50.890;8.054;2023-04-01T15:43:43;3.40;;;3.10;;
8952;SDS011;4511;50.890;8.054;2023-04-01T15:46:22;3.50;;;3.00;;
8952;SDS011;4511;50.890;8.054;2023-04-01T15:49:03;3.20;;;3.00;;
8952;SDS011;4511;50.890;8.054;2023-04-01T15:54:25;3.20;;;3.00;;
8952;SDS011;4511;50.890;8.054;2023-04-01T15:57:04;3.40;;;3.20;;
8952;SDS011;4511;50.890;8.054;2023-04-01T15:59:50;3.30;;;3.10;;
8952;SDS011;4511;50.890;8.054;2023-04-01T16:02:29;3.60;;;3.30;;
8952;SDS011;4511;50.890;8.054;2023-04-01T16:05:00;3.80;;;3.60;;
8952;SDS011;4511;50.890;8.054;2023-04-01T16:07:42;3.63;;;3.43;;
8952;SDS011;4511;50.890;8.054;2023-04-01T16:10:21;4.03;;;3.40;;
8952;SDS011;4511;50.890;8.054;2023-04-01T16:12:59;3.60;;;3.40;;
8952;SDS011;4511;50.890;8.054;2023-04-01T16:15:42;3.80;;;3.50;;
8952;SDS011;4511;50.890;8.054;2023-04-01T16:21:21;4.00;;;3.70;;
8952;SDS011;4511;50.890;8.054;2023-04-01T16:24:01;4.03;;;3.70;;
8952;SDS011;4511;50.890;8.054;2023-04-01T16:26:36;4.70;;;4.30;;
8952;SDS011;4511;50.890;8.054;2023-04-01T16:29:08;4.37;;;4.07;;
8952;SDS011;4511;50.890;8.054;2023-04-01T16:31:42;4.37;;;4.07;;
8952;SDS011;4511;50.890;8.054;2023-04-01T16:34:16;3.90;;;3.60;;
8952;SDS011;4511;50.890;8.054;2023-04-01T16:36:46;4.20;;;3.60;;
8952;SDS011;4511;50.890;8.054;2023-04-01T16:39:20;3.37;;;3.17;;
8952;SDS011;4511;50.890;8.054;2023-04-01T16:41:57;3.53;;;3.23;;
8952;SDS011;4511;50.890;8.054;2023-04-01T16:44:47;3.40;;;3.20;;
8952;SDS011;4511;50.890;8.054;2023-04-01T16:47:19;3.30;;;3.10;;
8952;SDS011;4511;50.890;8.054;2023-04-01T16:49:50;3.40;;;3.10;;
8952;SDS011;4511;50.890;8.054;2023-04-01T16:52:34;3.50;;;3.20;;
8952;SDS011;4511;50.890;8.054;2023-04-01T16:55:12;3.70;;;3.50;;
8952;SDS011;4511;50.890;8.054;2023-04-01T16:57:45;3.63;;;3.37;;
8952;SDS011;4511;50.890;8.054;2023-04-01T17:00:16;3.73;;;3.53;;
8952;SDS011;4511;50.890;8.054;2023-04-01T17:02:52;4.37;;;3.97;;
8952;SDS011;4511;50.890;8.054;2023-04-01T17:05:39;3.70;;;3.40;;
8952;SDS011;4511;50.890;8.054;2023-04-01T17:08:14;3.50;;;3.30;;
8952;SDS011;4511;50.890;8.054;2023-04-01T17:10:50;3.60;;;3.40;;
8952;SDS011;4511;50.890;8.054;2023-04-01T17:13:29;3.97;;;3.67;;
8952;SDS011;4511;50.890;8.054;2023-04-01T17:19:11;3.90;;;3.67;;
8952;SDS011;4511;50.890;8.054;2023-04-01T17:21:54;4.60;;;4.20;;
8952;SDS011;4511;50.890;8.054;2023-04-01T17:24:38;4.20;;;3.80;;
8952;SDS011;4511;50.890;8.054;2023-04-01T17:27:18;4.70;;;4.30;;
8952;SDS011;4511;50.890;8.054;2023-04-01T17:29:59;4.30;;;4.00;;
8952;SDS011;4511;50.890;8.054;2023-04-01T17:32:40;4.77;;;4.37;;
8952;SDS011;4511;50.890;8.054;2023-04-01T17:35:20;4.70;;;4.30;;
8952;SDS011;4511;50.890;8.054;2023-04-01T17:37:53;4.70;;;4.30;;
8952;SDS011;4511;50.890;8.054;2023-04-01T17:40:33;5.83;;;5.23;;
8952;SDS011;4511;50.890;8.054;2023-04-01T17:43:10;5.40;;;4.90;;
8952;SDS011;4511;50.890;8.054;2023-04-01T17:45:45;5.27;;;4.77;;